Time;durP1;ratioP1;P1;durP2;ratioP2;P2;SDS_P1;SDS_P2;PMS_P1;PMS_P2;Temp;Humidity;BMP_temperature;BMP_pressure;BME280_temperature;BME280_humidity;BME280_pressure;Samples;Min_cycle;Max_cycle;Signal;HPM_P1;HPM_P2
2021/04/22 00:01:51;;;;;;;;;17.00;12.75;;;;;;;;3537923;39;113972;-73
2021/04/22 00:04:17;;;;;;;;;13.25;13.00;;;;;;;;3539954;39;112283;-73
2021/04/22 00:06:43;;;;;;;;;15.50;12.50;;;;;;;;3537213;39;112437;-73
2021/04/22 00:09:09;;;;;;;;;13.25;12.00;;;;;;;;3538847;39;113872;-73
2021/04/22 00:11:35;;;;;;;;;12.25;12.25;;;;;;;;3539971;39;112907;-73
2021/04/22 00:14:01;;;;;;;;;14.75;12.25;;;;;;;;3538163;39;114073;-74
2021/04/22 00:16:27;;;;;;;;;11.75;11.75;;;;;;;;3539775;39;111822;-74
2021/04/22 00:18:54;;;;;;;;;13.00;11.75;;;;;;;;3538349;39;113299;-73
2021/04/22 00:21:20;;;;;;;;;16.75;14.25;;;;;;;;3539550;39;113871;-74
2021/04/22 00:23:46;;;;;;;;;11.25;10.50;;;;;;;;3538524;39;112227;-73
2021/04/22 00:26:12;;;;;;;;;11.50;11.25;;;;;;;;3539256;39;113388;-73
2021/04/22 00:28:38;;;;;;;;;10.00;10.00;;;;;;;;3537898;39;114007;-72
2021/04/22 00:31:04;;;;;;;;;12.00;12.00;;;;;;;;3543593;39;113076;-72
2021/04/22 00:33:30;;;;;;;;;12.75;12.50;;;;;;;;3539327;39;113916;-73
2021/04/22 00:35:57;;;;;;;;;16.00;16.00;;;;;;;;3539654;39;112262;-74
2021/04/22 00:38:23;;;;;;;;;16.50;15.00;;;;;;;;3536714;39;112580;-74
2021/04/22 00:40:50;;;;;;;;;15.25;14.75;;;;;;;;3539725;39;113691;-75
2021/04/22 00:43:17;;;;;;;;;16.00;14.50;;;;;;;;3539557;39;112281;-74
2021/04/22 00:45:43;;;;;;;;;16.75;15.75;;;;;;;;3538351;39;113238;-72
2021/04/22 00:48:10;;;;;;;;;13.00;13.00;;;;;;;;3538826;39;113985;-73
2021/04/22 00:50:37;;;;;;;;;10.00;10.00;;;;;;;;3538916;39;111739;-74
2021/04/22 00:53:05;;;;;;;;;13.00;12.00;;;;;;;;3540934;39;113382;-74
2021/04/22 00:55:31;;;;;;;;;9.25;8.00;;;;;;;;3539099;39;111859;-75
2021/04/22 00:57:57;;;;;;;;;14.75;12.75;;;;;;;;3538203;39;113400;-74
2021/04/22 01:00:25;;;;;;;;;14.50;14.50;;;;;;;;3539360;39;114199;-74
2021/04/22 01:02:51;;;;;;;;;14.75;13.00;;;;;;;;3539976;39;111766;-73
2021/04/22 01:05:18;;;;;;;;;17.00;15.50;;;;;;;;3538137;39;113730;-74
2021/04/22 01:07:45;;;;;;;;;13.25;12.75;;;;;;;;3536062;39;113059;-74
2021/04/22 01:10:14;;;;;;;;;14.00;11.50;;;;;;;;3539214;39;112058;-72
2021/04/22 01:12:40;;;;;;;;;15.50;14.25;;;;;;;;3536515;39;112287;-72
2021/04/22 01:15:06;;;;;;;;;17.75;14.50;;;;;;;;3541213;39;113985;-73
2021/04/22 01:17:33;;;;;;;;;18.75;15.00;;;;;;;;3538895;39;113137;-74
2021/04/22 01:20:00;;;;;;;;;15.25;14.00;;;;;;;;3538004;39;113988;-73
2021/04/22 01:22:27;;;;;;;;;18.50;16.50;;;;;;;;3539180;39;111856;-73
2021/04/22 01:24:53;;;;;;;;;17.25;16.50;;;;;;;;3538057;39;113268;-73
2021/04/22 01:27:19;;;;;;;;;13.50;13.50;;;;;;;;3539198;39;113977;-72
2021/04/22 01:29:45;;;;;;;;;14.75;12.50;;;;;;;;3538208;39;112342;-72
2021/04/22 01:32:11;;;;;;;;;15.25;15.25;;;;;;;;3539056;39;113521;-72
2021/04/22 01:34:37;;;;;;;;;13.50;13.50;;;;;;;;3537950;39;113854;-73
2021/04/22 01:37:03;;;;;;;;;18.25;14.50;;;;;;;;3541312;39;112314;-73
2021/04/22 01:39:30;;;;;;;;;14.75;13.00;;;;;;;;3538444;39;113908;-73
2021/04/22 01:41:56;;;;;;;;;14.50;13.00;;;;;;;;3538035;39;111821;-73
2021/04/22 01:44:22;;;;;;;;;15.50;15.50;;;;;;;;3539367;39;113462;-73
2021/04/22 01:46:48;;;;;;;;;11.00;10.75;;;;;;;;3541097;39;115022;-73
2021/04/22 01:49:14;;;;;;;;;11.00;10.00;;;;;;;;3537932;39;112014;-74
2021/04/22 01:51:40;;;;;;;;;14.50;13.00;;;;;;;;3538795;39;113323;-73
2021/04/22 01:54:07;;;;;;;;;15.00;15.00;;;;;;;;3538159;39;114014;-73
2021/04/22 01:56:34;;;;;;;;;13.50;12.50;;;;;;;;3538320;39;111915;-73
2021/04/22 01:59:00;;;;;;;;;15.00;14.00;;;;;;;;3541079;39;113538;-73
2021/04/22 02:01:26;;;;;;;;;15.00;15.00;;;;;;;;3537717;39;112104;-73
2021/04/22 02:03:52;;;;;;;;;11.75;11.50;;;;;;;;3539570;39;113445;-73
2021/04/22 02:06:18;;;;;;;;;14.00;11.50;;;;;;;;3536982;39;113756;-73
2021/04/22 02:08:44;;;;;;;;;13.50;13.00;;;;;;;;3539116;39;112329;-74
2021/04/22 02:11:10;;;;;;;;;12.50;12.25;;;;;;;;3538038;39;113474;-73
2021/04/22 02:13:37;;;;;;;;;17.75;15.25;;;;;;;;3538051;39;114129;-74
2021/04/22 02:16:03;;;;;;;;;14.25;13.00;;;;;;;;3538601;39;112142;-74
2021/04/22 02:18:29;;;;;;;;;15.00;14.00;;;;;;;;3537896;39;113342;-72
2021/04/22 02:20:55;;;;;;;;;16.00;15.50;;;;;;;;3540969;39;112033;-72
2021/04/22 02:23:22;;;;;;;;;15.75;13.75;;;;;;;;3537516;39;113365;-72
2021/04/22 02:25:48;;;;;;;;;14.75;14.75;;;;;;;;3538574;39;114262;-72
2021/04/22 02:28:14;;;;;;;;;15.25;15.00;;;;;;;;3537560;39;111942;-74
2021/04/22 02:30:42;;;;;;;;;17.00;15.25;;;;;;;;3538409;39;113272;-73
2021/04/22 02:33:09;;;;;;;;;14.50;14.25;;;;;;;;3537596;39;114056;-72
2021/04/22 02:35:36;;;;;;;;;11.50;8.50;;;;;;;;3538127;39;112158;-73
2021/04/22 02:38:04;;;;;;;;;13.00;12.25;;;;;;;;3540408;39;113508;-73
2021/04/22 02:40:30;;;;;;;;;13.50;13.00;;;;;;;;3539699;39;113876;-73
2021/04/22 02:42:57;;;;;;;;;16.75;15.00;;;;;;;;3538563;39;113965;-73
2021/04/22 02:45:24;;;;;;;;;13.50;11.50;;;;;;;;3536659;39;113972;-72
2021/04/22 02:47:51;;;;;;;;;15.25;12.50;;;;;;;;3538800;39;111826;-72
2021/04/22 02:50:19;;;;;;;;;15.50;14.25;;;;;;;;3539063;39;113435;-70
2021/04/22 02:52:45;;;;;;;;;14.25;13.25;;;;;;;;3539082;39;113466;-73
2021/04/22 02:55:12;;;;;;;;;14.75;13.50;;;;;;;;3539040;39;112207;-74
2021/04/22 02:57:38;;;;;;;;;15.00;14.50;;;;;;;;3539719;39;113777;-73
2021/04/22 03:00:05;;;;;;;;;12.75;11.50;;;;;;;;3539007;39;113904;-72
2021/04/22 03:02:31;;;;;;;;;14.25;14.25;;;;;;;;3541870;39;111887;-71
2021/04/22 03:04:58;;;;;;;;;16.50;16.00;;;;;;;;3539705;39;114416;-74
2021/04/22 03:07:24;;;;;;;;;16.25;14.00;;;;;;;;3538505;39;112052;-75
2021/04/22 03:09:50;;;;;;;;;13.00;13.00;;;;;;;;3540567;39;113300;-74
2021/04/22 03:12:16;;;;;;;;;11.25;10.00;;;;;;;;3538441;39;113722;-74
2021/04/22 03:14:42;;;;;;;;;13.50;12.00;;;;;;;;3539891;39;112101;-75
2021/04/22 03:17:08;;;;;;;;;13.75;12.25;;;;;;;;3539353;39;113276;-75
2021/04/22 03:19:34;;;;;;;;;16.00;14.75;;;;;;;;3538898;39;113885;-76
2021/04/22 03:22:01;;;;;;;;;16.25;14.00;;;;;;;;3539751;39;112107;-75
2021/04/22 03:24:27;;;;;;;;;12.25;11.75;;;;;;;;3540921;39;113213;-73
2021/04/22 03:26:53;;;;;;;;;14.00;13.00;;;;;;;;3540718;39;112032;-73
2021/04/22 03:29:19;;;;;;;;;16.50;15.00;;;;;;;;3540156;39;113325;-74
2021/04/22 03:31:45;;;;;;;;;16.00;13.75;;;;;;;;3538169;39;114552;-74
2021/04/22 03:34:11;;;;;;;;;15.00;13.00;;;;;;;;3539743;39;112823;-73
2021/04/22 03:36:37;;;;;;;;;14.25;14.25;;;;;;;;3541373;39;113975;-73
2021/04/22 03:39:05;;;;;;;;;11.25;11.25;;;;;;;;3535317;39;112858;-73
2021/04/22 03:41:31;;;;;;;;;14.50;14.00;;;;;;;;3539480;39;111878;-73
2021/04/22 03:43:57;;;;;;;;;17.75;13.50;;;;;;;;3541012;39;113378;-74
2021/04/22 03:46:23;;;;;;;;;15.00;15.00;;;;;;;;3542104;39;114487;-73
2021/04/22 03:48:49;;;;;;;;;14.00;14.00;;;;;;;;3538529;39;114050;-72
2021/04/22 03:51:15;;;;;;;;;11.50;11.25;;;;;;;;3539511;39;113963;-73
2021/04/22 03:53:41;;;;;;;;;14.75;13.50;;;;;;;;3538857;39;111778;-74
2021/04/22 03:56:08;;;;;;;;;11.50;10.50;;;;;;;;3539594;39;113665;-73
2021/04/22 03:58:34;;;;;;;;;15.00;14.00;;;;;;;;3541003;39;114447;-74
2021/04/22 04:01:01;;;;;;;;;14.25;14.00;;;;;;;;3538839;39;111850;-74
2021/04/22 04:03:27;;;;;;;;;14.00;13.00;;;;;;;;3539844;39;112363;-74
2021/04/22 04:05:53;;;;;;;;;12.25;12.25;;;;;;;;3537934;39;113976;-74
2021/04/22 04:08:19;;;;;;;;;15.50;14.75;;;;;;;;3542857;39;112146;-74
2021/04/22 04:10:45;;;;;;;;;14.75;13.50;;;;;;;;3538058;39;113874;-74
2021/04/22 04:13:12;;;;;;;;;15.50;14.00;;;;;;;;3539507;39;111929;-73
2021/04/22 04:15:38;;;;;;;;;10.25;10.25;;;;;;;;3539002;39;113289;-74
2021/04/22 04:18:05;;;;;;;;;12.25;10.75;;;;;;;;3538620;39;114368;-75
2021/04/22 04:20:32;;;;;;;;;11.25;10.25;;;;;;;;3539469;39;112023;-73
2021/04/22 04:22:58;;;;;;;;;15.75;14.50;;;;;;;;3538767;39;113448;-75
2021/04/22 04:25:24;;;;;;;;;12.50;12.50;;;;;;;;3541589;39;113904;-73
2021/04/22 04:27:50;;;;;;;;;11.00;10.67;;;;;;;;3537528;39;112444;-74
2021/04/22 04:30:19;;;;;;;;;15.75;13.50;;;;;;;;3539515;39;114279;-74
2021/04/22 04:32:45;;;;;;;;;13.75;11.75;;;;;;;;3538626;39;112203;-74
2021/04/22 04:35:13;;;;;;;;;10.67;8.00;;;;;;;;3539485;39;113113;-73
2021/04/22 04:37:39;;;;;;;;;15.00;14.00;;;;;;;;3538274;39;114301;-73
2021/04/22 04:40:06;;;;;;;;;15.75;14.00;;;;;;;;3539166;39;112315;-74
2021/04/22 04:42:32;;;;;;;;;18.75;15.25;;;;;;;;3539440;39;113517;-73
2021/04/22 04:44:58;;;;;;;;;13.00;13.00;;;;;;;;3538208;39;114334;-74
2021/04/22 04:47:25;;;;;;;;;15.67;14.00;;;;;;;;3539760;39;112233;-73
2021/04/22 04:49:51;;;;;;;;;16.00;15.00;;;;;;;;3540550;39;113189;-73
2021/04/22 04:52:17;;;;;;;;;16.00;16.00;;;;;;;;3536309;39;111933;-73
2021/04/22 04:54:43;;;;;;;;;13.25;12.25;;;;;;;;3538596;39;113427;-73
2021/04/22 04:57:09;;;;;;;;;15.25;15.25;;;;;;;;3538947;39;113940;-73
2021/04/22 04:59:36;;;;;;;;;13.50;13.50;;;;;;;;3539013;39;112056;-73
2021/04/22 05:02:02;;;;;;;;;13.75;12.50;;;;;;;;3538834;39;113367;-73
2021/04/22 05:04:28;;;;;;;;;16.00;13.75;;;;;;;;3543425;39;113901;-73
2021/04/22 05:06:54;;;;;;;;;20.00;15.00;;;;;;;;3539796;39;111959;-74
2021/04/22 05:09:21;;;;;;;;;16.25;15.25;;;;;;;;3539719;39;113249;-74
2021/04/22 05:11:47;;;;;;;;;16.33;15.67;;;;;;;;3540525;39;113760;-74
2021/04/22 05:14:13;;;;;;;;;14.00;11.50;;;;;;;;3539350;39;112983;-73
2021/04/22 05:16:39;;;;;;;;;21.00;16.00;;;;;;;;3537902;39;114263;-74
2021/04/22 05:19:05;;;;;;;;;15.50;14.50;;;;;;;;3538937;39;112459;-74
2021/04/22 05:21:32;;;;;;;;;16.00;15.25;;;;;;;;3539164;39;114087;-74
2021/04/22 05:23:58;;;;;;;;;13.25;10.50;;;;;;;;3538023;39;114032;-74
2021/04/22 05:26:24;;;;;;;;;17.00;16.00;;;;;;;;3539592;39;112372;-75
2021/04/22 05:28:51;;;;;;;;;13.25;13.00;;;;;;;;3538105;39;113720;-73
2021/04/22 05:31:17;;;;;;;;;15.00;13.00;;;;;;;;3539061;39;113864;-74
2021/04/22 05:33:43;;;;;;;;;14.75;12.75;;;;;;;;3541056;39;112090;-74
2021/04/22 05:36:09;;;;;;;;;15.00;15.00;;;;;;;;3538544;39;114006;-74
2021/04/22 05:38:37;;;;;;;;;13.25;13.25;;;;;;;;3538728;39;111864;-73
2021/04/22 05:41:03;;;;;;;;;17.25;14.00;;;;;;;;3538611;39;113462;-72
2021/04/22 05:43:29;;;;;;;;;15.00;13.50;;;;;;;;3537114;39;113285;-72
2021/04/22 05:45:55;;;;;;;;;19.00;17.25;;;;;;;;3538107;39;112876;-73
2021/04/22 05:48:22;;;;;;;;;13.75;13.00;;;;;;;;3539503;39;113235;-73
2021/04/22 05:50:48;;;;;;;;;14.00;13.75;;;;;;;;3539012;39;114461;-75
2021/04/22 05:53:15;;;;;;;;;22.00;17.50;;;;;;;;3538214;39;112651;-72
2021/04/22 05:55:42;;;;;;;;;20.50;19.50;;;;;;;;3540719;39;113852;-69
2021/04/22 05:58:08;;;;;;;;;19.00;19.00;;;;;;;;3537463;39;111953;-74
2021/04/22 06:00:34;;;;;;;;;24.50;18.50;;;;;;;;3537622;39;113615;-68
2021/04/22 06:03:00;;;;;;;;;22.00;21.75;;;;;;;;3537704;39;114242;-69
2021/04/22 06:05:27;;;;;;;;;19.25;19.00;;;;;;;;3533285;39;112756;-70
2021/04/22 06:07:53;;;;;;;;;17.75;14.25;;;;;;;;3538404;39;113075;-68
2021/04/22 06:10:20;;;;;;;;;20.75;17.00;;;;;;;;3536175;39;113828;-73
2021/04/22 06:12:47;;;;;;;;;19.50;18.75;;;;;;;;3538375;39;111975;-68
2021/04/22 06:15:14;;;;;;;;;18.50;16.75;;;;;;;;3537076;39;112863;-69
2021/04/22 06:17:40;;;;;;;;;19.00;19.00;;;;;;;;3540089;39;114762;-73
2021/04/22 06:20:08;;;;;;;;;21.25;19.00;;;;;;;;3537442;39;113389;-73
2021/04/22 06:22:34;;;;;;;;;20.50;20.50;;;;;;;;3536821;39;113826;-71
2021/04/22 06:25:00;;;;;;;;;20.50;20.00;;;;;;;;3538033;39;112215;-73
2021/04/22 06:27:26;;;;;;;;;19.50;16.50;;;;;;;;3537254;39;113518;-77
2021/04/22 06:29:53;;;;;;;;;18.50;18.50;;;;;;;;3539683;39;113911;-76
2021/04/22 06:32:19;;;;;;;;;18.50;17.75;;;;;;;;3539524;39;112392;-76
2021/04/22 06:34:46;;;;;;;;;21.00;20.50;;;;;;;;3538237;39;113295;-73
2021/04/22 06:37:12;;;;;;;;;19.00;17.50;;;;;;;;3541952;39;113889;-80
2021/04/22 06:39:38;;;;;;;;;20.25;20.25;;;;;;;;3538420;39;113499;-78
2021/04/22 06:42:04;;;;;;;;;19.00;17.25;;;;;;;;3538784;39;114017;-77
2021/04/22 06:44:30;;;;;;;;;23.50;20.75;;;;;;;;3539057;39;112349;-74
2021/04/22 06:46:59;;;;;;;;;21.75;20.50;;;;;;;;3540931;39;113222;-73
2021/04/22 06:49:25;;;;;;;;;22.25;20.50;;;;;;;;3537507;39;113954;-72
2021/04/22 06:51:51;;;;;;;;;22.33;20.00;;;;;;;;3539719;39;111867;-74
2021/04/22 06:54:17;;;;;;;;;22.75;20.75;;;;;;;;3546255;39;115208;-74
2021/04/22 06:56:43;;;;;;;;;25.25;23.25;;;;;;;;3546970;39;113564;-73
2021/04/22 06:59:09;;;;;;;;;21.00;20.00;;;;;;;;3549245;39;113048;-73
2021/04/22 07:01:35;;;;;;;;;18.75;17.75;;;;;;;;3546123;39;114043;-73
2021/04/22 07:04:03;;;;;;;;;23.25;21.50;;;;;;;;3547009;39;111815;-74
2021/04/22 07:06:29;;;;;;;;;20.75;16.25;;;;;;;;3548172;39;113279;-72
2021/04/22 07:08:55;;;;;;;;;23.75;22.00;;;;;;;;3545307;39;114049;-73
2021/04/22 07:11:21;;;;;;;;;21.00;19.25;;;;;;;;3546928;39;113090;-72
2021/04/22 07:13:47;;;;;;;;;25.50;21.00;;;;;;;;3543295;39;113481;-72
2021/04/22 07:16:13;;;;;;;;;21.75;20.00;;;;;;;;3545265;39;114330;-72
2021/04/22 07:18:39;;;;;;;;;28.25;22.75;;;;;;;;3546201;39;111838;-72
2021/04/22 07:21:06;;;;;;;;;13.00;13.00;;;;;;;;3549251;39;113399;-73
2021/04/22 07:23:32;;;;;;;;;24.75;22.75;;;;;;;;3547858;39;111959;-72
2021/04/22 07:25:58;;;;;;;;;26.50;24.50;;;;;;;;3541250;39;113546;-72
2021/04/22 07:28:24;;;;;;;;;25.50;23.25;;;;;;;;3535999;39;113852;-74
2021/04/22 07:30:52;;;;;;;;;27.00;26.00;;;;;;;;3539669;39;111896;-74
2021/04/22 07:33:18;;;;;;;;;25.25;23.25;;;;;;;;3539556;39;113003;-73
2021/04/22 07:35:44;;;;;;;;;24.25;24.00;;;;;;;;3537688;39;113885;-73
2021/04/22 07:38:11;;;;;;;;;23.50;23.00;;;;;;;;3538851;39;111795;-73
2021/04/22 07:40:40;;;;;;;;;24.00;22.00;;;;;;;;3538312;39;113892;-74
2021/04/22 07:43:06;;;;;;;;;24.25;24.25;;;;;;;;3540866;39;114131;-74
2021/04/22 07:45:34;;;;;;;;;28.75;25.00;;;;;;;;3538548;39;113545;-74
2021/04/22 07:48:00;;;;;;;;;29.25;25.25;;;;;;;;3537493;39;113834;-75
2021/04/22 07:50:26;;;;;;;;;24.25;22.50;;;;;;;;3538711;39;112479;-74
2021/04/22 07:52:52;;;;;;;;;27.00;27.00;;;;;;;;3537978;39;113688;-74
2021/04/22 07:55:21;;;;;;;;;30.75;28.25;;;;;;;;3538821;39;113730;-74
2021/04/22 07:57:49;;;;;;;;;33.67;29.67;;;;;;;;3539719;39;112933;-71
2021/04/22 08:00:16;;;;;;;;;27.25;24.75;;;;;;;;3538210;39;113485;-70
2021/04/22 08:02:42;;;;;;;;;31.25;27.50;;;;;;;;3538664;39;113888;-70
2021/04/22 08:05:09;;;;;;;;;34.50;30.25;;;;;;;;3540859;39;112763;-69
2021/04/22 08:07:35;;;;;;;;;29.00;25.75;;;;;;;;3537861;39;114240;-72
2021/04/22 08:10:01;;;;;;;;;29.25;24.00;;;;;;;;3539363;39;111873;-72
2021/04/22 08:12:28;;;;;;;;;26.75;26.00;;;;;;;;3539008;39;113325;-71
2021/04/22 08:14:58;;;;;;;;;24.75;22.00;;;;;;;;3538640;39;114088;-71
2021/04/22 08:17:24;;;;;;;;;24.75;22.75;;;;;;;;3537583;39;111726;-70
2021/04/22 08:19:50;;;;;;;;;25.75;23.75;;;;;;;;3539417;39;113892;-69
2021/04/22 08:22:16;;;;;;;;;23.50;23.25;;;;;;;;3538995;39;113998;-70
2021/04/22 08:24:42;;;;;;;;;28.25;25.50;;;;;;;;3538924;39;113705;-70
2021/04/22 08:27:08;;;;;;;;;29.00;23.00;;;;;;;;3540427;39;113202;-70
2021/04/22 08:29:35;;;;;;;;;33.25;30.00;;;;;;;;3538015;39;112816;-70
2021/04/22 08:32:01;;;;;;;;;24.25;23.00;;;;;;;;3538574;39;113953;-70
2021/04/22 08:34:27;;;;;;;;;26.25;24.25;;;;;;;;3537219;39;114105;-71
2021/04/22 08:36:54;;;;;;;;;30.00;25.75;;;;;;;;3539130;39;111909;-70
2021/04/22 08:39:20;;;;;;;;;24.50;24.25;;;;;;;;3537554;39;113596;-70
2021/04/22 08:41:46;;;;;;;;;27.50;27.50;;;;;;;;3538815;39;114131;-70
2021/04/22 08:44:12;;;;;;;;;32.75;28.50;;;;;;;;3537894;39;112094;-69
2021/04/22 08:46:39;;;;;;;;;32.75;27.75;;;;;;;;3540552;39;113309;-69
2021/04/22 08:49:06;;;;;;;;;27.00;27.00;;;;;;;;3537991;39;111786;-70
2021/04/22 08:51:33;;;;;;;;;30.50;24.75;;;;;;;;3534261;39;114073;-70
2021/04/22 08:54:02;;;;;;;;;32.50;27.50;;;;;;;;3536955;39;112924;-69
2021/04/22 08:56:29;;;;;;;;;28.25;25.75;;;;;;;;3537812;39;111887;-69
2021/04/22 08:58:55;;;;;;;;;29.25;26.75;;;;;;;;3539063;39;113874;-67
2021/04/22 09:01:22;;;;;;;;;29.00;24.50;;;;;;;;3533404;39;113008;-69
2021/04/22 09:03:49;;;;;;;;;30.50;29.25;;;;;;;;3539288;39;111812;-72
2021/04/22 09:06:16;;;;;;;;;29.25;26.75;;;;;;;;3541922;39;112970;-68
2021/04/22 09:08:44;;;;;;;;;35.75;29.75;;;;;;;;3548573;39;114020;-68
2021/04/22 09:11:11;;;;;;;;;35.00;32.75;;;;;;;;3543534;39;113745;-70
2021/04/22 09:13:38;;;;;;;;;29.50;26.25;;;;;;;;3544004;39;113844;-71
2021/04/22 09:16:05;;;;;;;;;29.00;28.50;;;;;;;;3538334;39;112597;-68
2021/04/22 09:18:40;;;;;;;;;30.00;26.75;;;;;;;;3537879;39;113352;-69
2021/04/22 09:21:16;;;;;;;;;33.50;32.25;;;;;;;;3537522;39;114233;-69
2021/04/22 09:23:54;;;;;;;;;28.25;21.75;;;;;;;;3543469;39;112985;-68
2021/04/22 09:26:20;;;;;;;;;26.50;25.75;;;;;;;;3542555;39;113218;-69
2021/04/22 09:28:47;;;;;;;;;36.25;34.00;;;;;;;;3538709;39;114085;-70
2021/04/22 09:31:26;;;;;;;;;28.50;25.75;;;;;;;;3540079;39;111982;-72
2021/04/22 09:34:01;;;;;;;;;32.75;28.75;;;;;;;;3540125;39;114048;-69
2021/04/22 09:36:38;;;;;;;;;29.50;22.75;;;;;;;;3542164;39;113188;-70
2021/04/22 09:39:05;;;;;;;;;28.25;26.25;;;;;;;;3541389;39;112865;-70
2021/04/22 09:41:33;;;;;;;;;28.00;26.50;;;;;;;;3541311;39;114227;-69
2021/04/22 09:44:05;;;;;;;;;28.75;27.75;;;;;;;;3540962;39;112175;-70
2021/04/22 09:46:31;;;;;;;;;28.50;25.25;;;;;;;;3542423;39;113291;-70
2021/04/22 09:48:57;;;;;;;;;29.75;28.00;;;;;;;;3541216;39;113894;-73
2021/04/22 09:51:31;;;;;;;;;32.75;29.50;;;;;;;;3539263;39;111899;-75
2021/04/22 09:54:04;;;;;;;;;36.50;30.00;;;;;;;;3544889;39;113459;-73
2021/04/22 09:56:39;;;;;;;;;31.50;29.75;;;;;;;;3541519;39;112074;-73
2021/04/22 09:59:05;;;;;;;;;36.75;28.50;;;;;;;;3542635;39;113429;-73
2021/04/22 10:01:32;;;;;;;;;29.00;25.00;;;;;;;;3542233;39;113192;-72
2021/04/22 10:03:58;;;;;;;;;29.25;29.00;;;;;;;;3543956;39;112312;-71
2021/04/22 10:06:24;;;;;;;;;33.25;31.50;;;;;;;;3543550;39;113278;-71
2021/04/22 10:08:51;;;;;;;;;24.75;23.75;;;;;;;;3543175;39;113903;-71
2021/04/22 10:11:17;;;;;;;;;32.50;26.75;;;;;;;;3543813;39;112293;-71
2021/04/22 10:13:44;;;;;;;;;26.75;24.00;;;;;;;;3543661;39;112868;-72
2021/04/22 10:16:10;;;;;;;;;30.50;27.00;;;;;;;;3545786;39;114059;-72
2021/04/22 10:18:37;;;;;;;;;25.00;24.00;;;;;;;;3538587;39;113590;-72
2021/04/22 10:21:03;;;;;;;;;27.50;26.50;;;;;;;;3543184;39;114347;-71
2021/04/22 10:23:30;;;;;;;;;29.50;27.25;;;;;;;;3543405;39;111933;-70
2021/04/22 10:25:57;;;;;;;;;23.50;23.25;;;;;;;;3544016;39;113615;-72
2021/04/22 10:28:23;;;;;;;;;27.25;24.75;;;;;;;;3542841;39;113977;-73
2021/04/22 10:30:51;;;;;;;;;23.00;20.00;;;;;;;;3543514;39;112193;-75
2021/04/22 10:33:18;;;;;;;;;25.75;24.75;;;;;;;;3543456;39;113269;-75
2021/04/22 10:35:45;;;;;;;;;23.75;23.00;;;;;;;;3543095;39;113938;-76
2021/04/22 10:38:11;;;;;;;;;21.25;20.50;;;;;;;;3546322;39;111779;-75
2021/04/22 10:40:38;;;;;;;;;23.50;20.75;;;;;;;;3543317;39;114234;-75
2021/04/22 10:43:06;;;;;;;;;29.75;25.75;;;;;;;;3543769;39;112299;-76
2021/04/22 10:45:34;;;;;;;;;35.25;27.25;;;;;;;;3543851;39;113205;-76
2021/04/22 10:48:00;;;;;;;;;25.00;24.00;;;;;;;;3544999;39;114640;-76
2021/04/22 10:50:28;;;;;;;;;22.25;21.25;;;;;;;;3539619;39;112118;-74
2021/04/22 10:57:21;;;;;;;;;26.50;23.25;;;;;;;;3571278;39;112004;-75
2021/04/22 10:59:48;;;;;;;;;17.75;16.75;;;;;;;;3566983;39;112662;-74
2021/04/22 20:03:56;;;;;;;;;11.33;11.00;;;;;;;;3572170;39;112246;-69
2021/04/22 20:06:22;;;;;;;;;8.25;8.25;;;;;;;;3566131;39;113888;-68
2021/04/22 20:08:49;;;;;;;;;5.25;5.00;;;;;;;;3565221;39;111884;-69
2021/04/22 20:11:16;;;;;;;;;7.00;6.50;;;;;;;;3565559;39;112711;-70
2021/04/22 20:13:42;;;;;;;;;11.00;10.50;;;;;;;;3564639;39;114030;-66
2021/04/22 20:16:08;;;;;;;;;8.25;7.00;;;;;;;;3566897;39;111993;-68
2021/04/22 20:18:36;;;;;;;;;9.25;9.00;;;;;;;;3566840;39;113924;-69
2021/04/22 20:21:07;;;;;;;;;12.25;9.75;;;;;;;;3566708;39;113914;-69
2021/04/22 20:23:33;;;;;;;;;10.50;9.00;;;;;;;;3568169;39;111894;-68
2021/04/22 20:25:59;;;;;;;;;11.00;9.25;;;;;;;;3561660;39;113056;-70
2021/04/22 20:28:25;;;;;;;;;9.25;9.00;;;;;;;;3566002;39;113614;-68
2021/04/22 20:30:51;;;;;;;;;10.75;10.00;;;;;;;;3564497;39;112532;-70
2021/04/22 20:33:18;;;;;;;;;11.25;9.50;;;;;;;;3565171;39;114385;-71
2021/04/22 20:35:44;;;;;;;;;8.75;8.75;;;;;;;;3566927;39;111752;-71
2021/04/22 20:38:12;;;;;;;;;9.00;9.00;;;;;;;;3565161;39;113376;-71
2021/04/22 20:40:38;;;;;;;;;11.50;10.00;;;;;;;;3566241;39;113780;-71
2021/04/22 20:43:05;;;;;;;;;10.50;10.50;;;;;;;;3565629;39;112163;-71
2021/04/22 20:45:31;;;;;;;;;10.00;10.00;;;;;;;;3569739;39;113275;-73
2021/04/22 20:47:58;;;;;;;;;11.75;10.25;;;;;;;;3566403;39;112184;-71
2021/04/22 20:50:24;;;;;;;;;13.50;9.75;;;;;;;;3568677;39;112270;-72
2021/04/22 20:52:51;;;;;;;;;13.25;11.00;;;;;;;;3567390;39;113593;-78
2021/04/22 20:55:19;;;;;;;;;12.50;12.50;;;;;;;;3565938;39;112342;-71
2021/04/22 20:57:45;;;;;;;;;12.50;9.25;;;;;;;;3565996;39;113710;-69
2021/04/22 21:00:12;;;;;;;;;13.00;12.00;;;;;;;;3564740;39;113176;-69
2021/04/22 21:02:40;;;;;;;;;12.50;11.00;;;;;;;;3564097;39;113791;-71
2021/04/22 21:05:07;;;;;;;;;11.50;11.50;;;;;;;;3566202;39;113655;-70
2021/04/22 21:07:33;;;;;;;;;14.00;12.50;;;;;;;;3567821;39;113895;-69
2021/04/22 21:09:59;;;;;;;;;13.50;13.00;;;;;;;;3567199;39;113140;-69
2021/04/22 21:12:28;;;;;;;;;12.25;12.25;;;;;;;;3565366;39;114030;-69
2021/04/22 21:14:54;;;;;;;;;15.50;14.25;;;;;;;;3560967;39;112731;-69
2021/04/22 21:17:20;;;;;;;;;15.00;12.50;;;;;;;;3558717;39;113448;-69
2021/04/22 21:19:46;;;;;;;;;17.50;13.50;;;;;;;;3559024;39;114060;-69
2021/04/22 21:22:12;;;;;;;;;12.00;12.00;;;;;;;;3558453;39;112274;-69
2021/04/22 21:24:38;;;;;;;;;18.25;15.00;;;;;;;;3559180;39;113498;-71
2021/04/22 21:27:08;;;;;;;;;15.75;14.50;;;;;;;;3558116;39;114665;-70
2021/04/22 21:29:36;;;;;;;;;14.50;13.25;;;;;;;;3562045;39;111925;-70
2021/04/22 21:32:03;;;;;;;;;14.00;14.00;;;;;;;;3558816;39;114140;-70
2021/04/22 21:34:29;;;;;;;;;13.00;12.75;;;;;;;;3559690;39;112057;-69
2021/04/22 21:36:56;;;;;;;;;14.00;14.00;;;;;;;;3559725;39;113773;-68
2021/04/22 21:39:52;;;;;;;;;14.00;13.25;;;;;;;;3572941;39;112129;-69
2021/04/22 21:42:19;;;;;;;;;16.25;14.75;;;;;;;;3565350;39;114013;-70
2021/04/22 21:44:48;;;;;;;;;15.75;15.75;;;;;;;;3567373;39;111752;-70
2021/04/22 21:47:15;;;;;;;;;19.25;16.00;;;;;;;;3566036;39;113818;-70
2021/04/22 21:49:41;;;;;;;;;16.75;14.75;;;;;;;;3565273;39;114006;-69
2021/04/22 21:52:08;;;;;;;;;15.25;15.25;;;;;;;;3567516;39;111903;-70
2021/04/22 21:54:34;;;;;;;;;14.00;13.75;;;;;;;;3567777;39;113712;-69
2021/04/22 21:57:02;;;;;;;;;15.00;15.00;;;;;;;;3562640;39;112879;-70
2021/04/22 21:59:28;;;;;;;;;14.75;14.25;;;;;;;;3569257;39;112079;-69
2021/04/22 22:01:54;;;;;;;;;20.00;16.50;;;;;;;;3566206;39;113881;-69
2021/04/22 22:04:21;;;;;;;;;14.75;14.00;;;;;;;;3567787;39;112917;-69
2021/04/22 22:06:48;;;;;;;;;14.50;14.50;;;;;;;;3565745;39;113570;-69
2021/04/22 22:09:16;;;;;;;;;15.75;15.75;;;;;;;;3567005;39;114222;-69
2021/04/22 22:11:42;;;;;;;;;17.50;14.00;;;;;;;;3565683;39;112175;-69
2021/04/22 22:14:09;;;;;;;;;18.00;15.75;;;;;;;;3567488;39;113427;-68
2021/04/22 22:16:35;;;;;;;;;16.00;13.00;;;;;;;;3565389;39;113888;-69
2021/04/22 22:19:01;;;;;;;;;17.75;14.00;;;;;;;;3565494;39;111995;-70
2021/04/22 22:21:30;;;;;;;;;16.25;14.00;;;;;;;;3568908;39;113336;-71
2021/04/22 22:23:56;;;;;;;;;18.25;13.75;;;;;;;;3566444;39;112780;-69
2021/04/22 22:26:22;;;;;;;;;17.00;15.00;;;;;;;;3566044;39;113667;-69
2021/04/22 22:28:49;;;;;;;;;13.00;13.00;;;;;;;;3566680;39;113896;-70
2021/04/22 22:31:17;;;;;;;;;16.75;16.25;;;;;;;;3565688;39;113082;-69
2021/04/22 22:33:44;;;;;;;;;18.25;15.00;;;;;;;;3567508;39;113371;-69
2021/04/22 22:36:11;;;;;;;;;17.25;16.75;;;;;;;;3565608;39;113933;-70
2021/04/22 22:38:37;;;;;;;;;14.25;14.25;;;;;;;;3567799;39;112105;-70
2021/04/22 22:41:04;;;;;;;;;14.50;12.50;;;;;;;;3566874;39;113288;-69
2021/04/22 22:43:30;;;;;;;;;10.75;10.75;;;;;;;;3569944;39;113877;-70
2021/04/22 22:45:57;;;;;;;;;17.00;14.25;;;;;;;;3567425;39;113258;-69
2021/04/22 22:48:24;;;;;;;;;15.50;14.50;;;;;;;;3562796;39;112853;-70
2021/04/22 22:50:50;;;;;;;;;17.75;13.75;;;;;;;;3562159;39;113012;-70
2021/04/22 22:53:17;;;;;;;;;13.00;12.50;;;;;;;;3560464;39;113309;-69
2021/04/22 22:55:43;;;;;;;;;20.25;15.25;;;;;;;;3559953;39;114006;-70
2021/04/22 22:58:09;;;;;;;;;14.00;10.50;;;;;;;;3558592;39;111932;-70
2021/04/22 23:00:38;;;;;;;;;17.25;15.75;;;;;;;;3560019;39;113488;-69
2021/04/22 23:03:06;;;;;;;;;17.25;16.00;;;;;;;;3560679;39;113861;-69
2021/04/22 23:05:33;;;;;;;;;16.50;14.25;;;;;;;;3560822;39;112004;-70
2021/04/22 23:08:00;;;;;;;;;15.50;15.00;;;;;;;;3561478;39;113746;-70
2021/04/22 23:10:26;;;;;;;;;18.25;16.00;;;;;;;;3559678;39;111999;-69